sensor_id;sensor_type;location;lat;lon;timestamp;P1;durP1;ratioP1;P2;durP2;ratioP2
25449;SDS011;13371;52.080;5.624;2024-01-07T00:01:56;19.63;;;9.88;;
25449;SDS011;13371;52.080;5.624;2024-01-07T00:04:21;19.98;;;9.63;;
25449;SDS011;13371;52.080;5.624;2024-01-07T00:06:47;24.02;;;9.98;;
25449;SDS011;13371;52.080;5.624;2024-01-07T00:09:12;17.42;;;8.85;;
25449;SDS011;13371;52.080;5.624;2024-01-07T00:11:38;22.50;;;9.52;;
25449;SDS011;13371;52.080;5.624;2024-01-07T00:14:04;17.25;;;9.25;;
25449;SDS011;13371;52.080;5.624;2024-01-07T00:16:30;20.40;;;8.93;;
25449;SDS011;13371;52.080;5.624;2024-01-07T00:18:55;18.08;;;8.15;;
25449;SDS011;13371;52.080;5.624;2024-01-07T00:21:21;20.38;;;9.27;;
25449;SDS011;13371;52.080;5.624;2024-01-07T00:23:47;20.13;;;9.60;;
25449;SDS011;13371;52.080;5.624;2024-01-07T00:26:12;19.58;;;8.93;;
25449;SDS011;13371;52.080;5.624;2024-01-07T00:28:38;17.65;;;8.93;;
25449;SDS011;13371;52.080;5.624;2024-01-07T00:31:03;18.67;;;8.60;;
25449;SDS011;13371;52.080;5.624;2024-01-07T00:33:30;21.35;;;10.00;;
25449;SDS011;13371;52.080;5.624;2024-01-07T00:35:56;22.40;;;9.75;;
25449;SDS011;13371;52.080;5.624;2024-01-07T00:38:22;20.05;;;10.65;;
25449;SDS011;13371;52.080;5.624;2024-01-07T00:40:47;21.15;;;9.45;;
25449;SDS011;13371;52.080;5.624;2024-01-07T00:43:13;20.73;;;10.00;;
25449;SDS011;13371;52.080;5.624;2024-01-07T00:45:39;20.17;;;10.68;;
25449;SDS011;13371;52.080;5.624;2024-01-07T00:48:04;22.77;;;10.10;;
25449;SDS011;13371;52.080;5.624;2024-01-07T00:50:30;23.42;;;9.70;;
25449;SDS011;13371;52.080;5.624;2024-01-07T00:52:56;27.92;;;12.45;;
25449;SDS011;13371;52.080;5.624;2024-01-07T00:55:21;26.48;;;10.73;;
25449;SDS011;13371;52.080;5.624;2024-01-07T00:57:48;21.83;;;10.52;;
25449;SDS011;13371;52.080;5.624;2024-01-07T01:00:14;26.67;;;11.32;;
25449;SDS011;13371;52.080;5.624;2024-01-07T01:02:40;31.42;;;11.60;;
25449;SDS011;13371;52.080;5.624;2024-01-07T01:05:06;26.38;;;11.73;;
25449;SDS011;13371;52.080;5.624;2024-01-07T01:07:32;27.85;;;11.43;;
25449;SDS011;13371;52.080;5.624;2024-01-07T01:09:57;26.27;;;11.95;;
25449;SDS011;13371;52.080;5.624;2024-01-07T01:12:23;29.75;;;13.70;;
25449;SDS011;13371;52.080;5.624;2024-01-07T01:14:49;36.35;;;14.27;;
25449;SDS011;13371;52.080;5.624;2024-01-07T01:17:14;30.63;;;13.35;;
25449;SDS011;13371;52.080;5.624;2024-01-07T01:19:40;22.92;;;11.57;;
25449;SDS011;13371;52.080;5.624;2024-01-07T01:22:06;25.42;;;12.18;;
25449;SDS011;13371;52.080;5.624;2024-01-07T01:24:31;26.27;;;11.15;;
25449;SDS011;13371;52.080;5.624;2024-01-07T01:26:57;30.35;;;12.00;;
25449;SDS011;13371;52.080;5.624;2024-01-07T01:29:22;23.65;;;11.40;;
25449;SDS011;13371;52.080;5.624;2024-01-07T01:31:48;26.92;;;12.05;;
25449;SDS011;13371;52.080;5.624;2024-01-07T01:34:13;26.75;;;12.30;;
25449;SDS011;13371;52.080;5.624;2024-01-07T01:36:39;24.00;;;11.43;;
25449;SDS011;13371;52.080;5.624;2024-01-07T01:39:04;24.63;;;11.68;;
25449;SDS011;13371;52.080;5.624;2024-01-07T01:41:30;24.95;;;11.35;;
25449;SDS011;13371;52.080;5.624;2024-01-07T01:43:59;24.15;;;11.45;;
25449;SDS011;13371;52.080;5.624;2024-01-07T01:46:25;24.58;;;11.18;;
25449;SDS011;13371;52.080;5.624;2024-01-07T01:48:53;25.30;;;10.98;;
25449;SDS011;13371;52.080;5.624;2024-01-07T01:51:20;22.95;;;11.05;;
25449;SDS011;13371;52.080;5.624;2024-01-07T01:53:46;25.77;;;10.73;;
25449;SDS011;13371;52.080;5.624;2024-01-07T01:56:14;25.65;;;11.75;;
25449;SDS011;13371;52.080;5.624;2024-01-07T01:58:42;28.38;;;12.50;;
25449;SDS011;13371;52.080;5.624;2024-01-07T02:01:08;22.88;;;11.70;;
25449;SDS011;13371;52.080;5.624;2024-01-07T02:03:33;23.60;;;11.57;;
25449;SDS011;13371;52.080;5.624;2024-01-07T02:05:59;23.33;;;11.10;;
25449;SDS011;13371;52.080;5.624;2024-01-07T02:08:25;23.40;;;12.45;;
25449;SDS011;13371;52.080;5.624;2024-01-07T02:10:51;26.27;;;10.95;;
25449;SDS011;13371;52.080;5.624;2024-01-07T02:13:16;22.80;;;11.43;;
25449;SDS011;13371;52.080;5.624;2024-01-07T02:15:42;22.92;;;10.68;;
25449;SDS011;13371;52.080;5.624;2024-01-07T02:18:09;26.77;;;11.77;;
25449;SDS011;13371;52.080;5.624;2024-01-07T02:20:34;26.75;;;11.55;;
25449;SDS011;13371;52.080;5.624;2024-01-07T02:23:01;27.25;;;11.95;;
25449;SDS011;13371;52.080;5.624;2024-01-07T02:25:27;22.95;;;11.23;;
25449;SDS011;13371;52.080;5.624;2024-01-07T02:27:52;26.65;;;10.90;;
25449;SDS011;13371;52.080;5.624;2024-01-07T02:30:18;25.33;;;11.82;;
25449;SDS011;13371;52.080;5.624;2024-01-07T02:32:44;22.90;;;12.27;;
25449;SDS011;13371;52.080;5.624;2024-01-07T02:35:09;26.17;;;12.32;;
25449;SDS011;13371;52.080;5.624;2024-01-07T02:37:35;27.05;;;11.70;;
25449;SDS011;13371;52.080;5.624;2024-01-07T02:40:01;24.02;;;12.85;;
25449;SDS011;13371;52.080;5.624;2024-01-07T02:42:26;27.10;;;12.77;;
25449;SDS011;13371;52.080;5.624;2024-01-07T02:44:52;25.67;;;12.35;;
25449;SDS011;13371;52.080;5.624;2024-01-07T02:47:17;26.42;;;11.80;;
25449;SDS011;13371;52.080;5.624;2024-01-07T02:49:43;26.23;;;12.35;;
25449;SDS011;13371;52.080;5.624;2024-01-07T02:52:08;25.95;;;11.98;;
25449;SDS011;13371;52.080;5.624;2024-01-07T02:54:34;28.90;;;12.68;;
25449;SDS011;13371;52.080;5.624;2024-01-07T02:56:59;23.75;;;11.45;;
25449;SDS011;13371;52.080;5.624;2024-01-07T02:59:25;27.08;;;11.05;;
25449;SDS011;13371;52.080;5.624;2024-01-07T03:01:50;25.63;;;11.90;;
25449;SDS011;13371;52.080;5.624;2024-01-07T03:04:16;28.83;;;11.45;;
25449;SDS011;13371;52.080;5.624;2024-01-07T03:06:42;27.20;;;12.68;;
25449;SDS011;13371;52.080;5.624;2024-01-07T03:09:07;26.45;;;12.30;;
25449;SDS011;13371;52.080;5.624;2024-01-07T03:11:38;22.00;;;10.85;;
25449;SDS011;13371;52.080;5.624;2024-01-07T03:14:06;29.17;;;13.02;;
25449;SDS011;13371;52.080;5.624;2024-01-07T03:16:31;27.42;;;10.55;;
25449;SDS011;13371;52.080;5.624;2024-01-07T03:18:57;24.85;;;11.77;;
25449;SDS011;13371;52.080;5.624;2024-01-07T03:21:23;29.77;;;12.65;;
25449;SDS011;13371;52.080;5.624;2024-01-07T03:23:49;21.42;;;10.48;;
25449;SDS011;13371;52.080;5.624;2024-01-07T03:26:16;25.55;;;12.38;;
25449;SDS011;13371;52.080;5.624;2024-01-07T03:28:42;27.80;;;11.88;;
25449;SDS011;13371;52.080;5.624;2024-01-07T03:31:09;20.70;;;10.70;;
25449;SDS011;13371;52.080;5.624;2024-01-07T03:33:38;26.98;;;12.43;;
25449;SDS011;13371;52.080;5.624;2024-01-07T03:36:07;25.83;;;12.10;;
25449;SDS011;13371;52.080;5.624;2024-01-07T03:38:34;27.88;;;12.00;;
25449;SDS011;13371;52.080;5.624;2024-01-07T03:41:00;20.13;;;10.35;;
25449;SDS011;13371;52.080;5.624;2024-01-07T03:43:25;22.30;;;10.88;;
25449;SDS011;13371;52.080;5.624;2024-01-07T03:45:51;26.38;;;11.20;;
25449;SDS011;13371;52.080;5.624;2024-01-07T03:48:16;29.15;;;13.00;;
25449;SDS011;13371;52.080;5.624;2024-01-07T03:50:42;21.27;;;11.13;;
25449;SDS011;13371;52.080;5.624;2024-01-07T03:53:07;25.45;;;12.55;;
25449;SDS011;13371;52.080;5.624;2024-01-07T03:55:33;27.08;;;11.63;;
25449;SDS011;13371;52.080;5.624;2024-01-07T03:57:59;24.38;;;11.63;;
25449;SDS011;13371;52.080;5.624;2024-01-07T04:00:24;27.17;;;12.65;;
25449;SDS011;13371;52.080;5.624;2024-01-07T04:02:50;24.58;;;11.25;;
25449;SDS011;13371;52.080;5.624;2024-01-07T04:05:15;23.63;;;11.77;;
25449;SDS011;13371;52.080;5.624;2024-01-07T04:07:41;26.38;;;11.25;;
25449;SDS011;13371;52.080;5.624;2024-01-07T04:10:06;22.35;;;11.18;;
25449;SDS011;13371;52.080;5.624;2024-01-07T04:12:32;28.40;;;11.65;;
25449;SDS011;13371;52.080;5.624;2024-01-07T04:14:58;23.05;;;11.80;;
25449;SDS011;13371;52.080;5.624;2024-01-07T04:17:23;23.55;;;11.38;;
25449;SDS011;13371;52.080;5.624;2024-01-07T04:19:49;23.33;;;11.43;;
25449;SDS011;13371;52.080;5.624;2024-01-07T04:22:16;25.80;;;12.73;;
25449;SDS011;13371;52.080;5.624;2024-01-07T04:24:42;20.63;;;10.35;;
25449;SDS011;13371;52.080;5.624;2024-01-07T04:27:07;25.55;;;11.65;;
25449;SDS011;13371;52.080;5.624;2024-01-07T04:29:33;22.00;;;10.27;;
25449;SDS011;13371;52.080;5.624;2024-01-07T04:31:59;19.85;;;10.60;;
25449;SDS011;13371;52.080;5.624;2024-01-07T04:34:24;24.38;;;10.93;;
25449;SDS011;13371;52.080;5.624;2024-01-07T04:36:50;20.75;;;10.52;;
25449;SDS011;13371;52.080;5.624;2024-01-07T04:39:16;23.38;;;10.13;;
25449;SDS011;13371;52.080;5.624;2024-01-07T04:41:41;19.15;;;9.07;;
25449;SDS011;13371;52.080;5.624;2024-01-07T04:44:07;24.23;;;10.80;;
25449;SDS011;13371;52.080;5.624;2024-01-07T04:46:39;18.77;;;9.75;;
25449;SDS011;13371;52.080;5.624;2024-01-07T04:49:05;21.17;;;11.10;;
25449;SDS011;13371;52.080;5.624;2024-01-07T04:51:31;19.73;;;9.65;;
25449;SDS011;13371;52.080;5.624;2024-01-07T04:53:57;17.83;;;10.00;;
25449;SDS011;13371;52.080;5.624;2024-01-07T04:56:23;18.48;;;9.63;;
25449;SDS011;13371;52.080;5.624;2024-01-07T04:58:48;25.67;;;10.32;;
25449;SDS011;13371;52.080;5.624;2024-01-07T05:01:14;17.67;;;9.93;;
25449;SDS011;13371;52.080;5.624;2024-01-07T05:03:40;21.40;;;10.95;;
25449;SDS011;13371;52.080;5.624;2024-01-07T05:06:07;23.38;;;10.35;;
25449;SDS011;13371;52.080;5.624;2024-01-07T05:08:33;20.98;;;10.13;;
25449;SDS011;13371;52.080;5.624;2024-01-07T05:10:59;21.90;;;10.15;;
25449;SDS011;13371;52.080;5.624;2024-01-07T05:13:24;16.42;;;9.73;;
25449;SDS011;13371;52.080;5.624;2024-01-07T05:15:50;18.13;;;9.65;;
25449;SDS011;13371;52.080;5.624;2024-01-07T05:18:19;20.40;;;10.23;;
25449;SDS011;13371;52.080;5.624;2024-01-07T05:20:48;18.55;;;9.55;;
25449;SDS011;13371;52.080;5.624;2024-01-07T05:23:13;22.23;;;8.73;;
25449;SDS011;13371;52.080;5.624;2024-01-07T05:25:39;17.85;;;8.90;;
25449;SDS011;13371;52.080;5.624;2024-01-07T05:28:05;18.15;;;10.07;;
25449;SDS011;13371;52.080;5.624;2024-01-07T05:30:31;17.33;;;9.02;;
25449;SDS011;13371;52.080;5.624;2024-01-07T05:32:56;18.48;;;9.32;;
25449;SDS011;13371;52.080;5.624;2024-01-07T05:35:22;19.08;;;9.77;;
25449;SDS011;13371;52.080;5.624;2024-01-07T05:37:48;16.95;;;8.55;;
25449;SDS011;13371;52.080;5.624;2024-01-07T05:40:13;17.88;;;8.40;;
25449;SDS011;13371;52.080;5.624;2024-01-07T05:42:39;17.42;;;8.38;;
25449;SDS011;13371;52.080;5.624;2024-01-07T05:45:05;16.30;;;8.18;;
25449;SDS011;13371;52.080;5.624;2024-01-07T05:47:31;18.02;;;8.73;;
25449;SDS011;13371;52.080;5.624;2024-01-07T05:49:56;17.00;;;8.93;;
25449;SDS011;13371;52.080;5.624;2024-01-07T05:52:22;17.30;;;8.43;;
25449;SDS011;13371;52.080;5.624;2024-01-07T05:54:47;17.45;;;8.38;;
25449;SDS011;13371;52.080;5.624;2024-01-07T05:57:13;18.92;;;8.35;;
25449;SDS011;13371;52.080;5.624;2024-01-07T05:59:38;16.05;;;8.52;;
25449;SDS011;13371;52.080;5.624;2024-01-07T06:02:04;18.77;;;8.73;;
25449;SDS011;13371;52.080;5.624;2024-01-07T06:04:30;15.07;;;8.32;;
25449;SDS011;13371;52.080;5.624;2024-01-07T06:06:55;15.30;;;8.27;;
25449;SDS011;13371;52.080;5.624;2024-01-07T06:09:21;16.48;;;8.70;;
25449;SDS011;13371;52.080;5.624;2024-01-07T06:11:46;15.07;;;8.07;;
25449;SDS011;13371;52.080;5.624;2024-01-07T06:14:12;14.13;;;7.65;;
25449;SDS011;13371;52.080;5.624;2024-01-07T06:16:37;14.77;;;7.80;;
25449;SDS011;13371;52.080;5.624;2024-01-07T06:19:03;15.02;;;8.00;;
25449;SDS011;13371;52.080;5.624;2024-01-07T06:21:28;15.13;;;7.75;;
25449;SDS011;13371;52.080;5.624;2024-01-07T06:23:54;17.17;;;7.97;;
25449;SDS011;13371;52.080;5.624;2024-01-07T06:26:20;15.15;;;8.20;;
25449;SDS011;13371;52.080;5.624;2024-01-07T06:28:45;18.10;;;8.95;;
25449;SDS011;13371;52.080;5.624;2024-01-07T06:31:11;14.15;;;6.95;;
25449;SDS011;13371;52.080;5.624;2024-01-07T06:33:36;16.23;;;7.63;;
25449;SDS011;13371;52.080;5.624;2024-01-07T06:36:02;15.43;;;7.95;;
25449;SDS011;13371;52.080;5.624;2024-01-07T06:38:29;16.27;;;8.35;;
25449;SDS011;13371;52.080;5.624;2024-01-07T06:40:54;13.95;;;7.32;;
25449;SDS011;13371;52.080;5.624;2024-01-07T06:43:20;14.68;;;7.47;;
25449;SDS011;13371;52.080;5.624;2024-01-07T06:45:46;12.70;;;7.50;;
25449;SDS011;13371;52.080;5.624;2024-01-07T06:48:11;11.68;;;6.60;;
25449;SDS011;13371;52.080;5.624;2024-01-07T06:50:37;14.60;;;7.55;;
25449;SDS011;13371;52.080;5.624;2024-01-07T06:53:03;14.73;;;7.55;;
25449;SDS011;13371;52.080;5.624;2024-01-07T06:55:28;12.98;;;7.63;;
25449;SDS011;13371;52.080;5.624;2024-01-07T06:57:54;14.60;;;6.90;;
25449;SDS011;13371;52.080;5.624;2024-01-07T07:00:19;15.23;;;7.80;;
25449;SDS011;13371;52.080;5.624;2024-01-07T07:02:45;13.77;;;7.93;;
25449;SDS011;13371;52.080;5.624;2024-01-07T07:05:11;14.85;;;8.20;;
25449;SDS011;13371;52.080;5.624;2024-01-07T07:07:36;14.70;;;7.82;;
25449;SDS011;13371;52.080;5.624;2024-01-07T07:10:02;13.68;;;7.38;;
25449;SDS011;13371;52.080;5.624;2024-01-07T07:12:28;13.43;;;8.27;;
25449;SDS011;13371;52.080;5.624;2024-01-07T07:14:54;15.05;;;6.97;;
25449;SDS011;13371;52.080;5.624;2024-01-07T07:17:19;15.05;;;8.52;;
25449;SDS011;13371;52.080;5.624;2024-01-07T07:19:45;14.10;;;8.10;;
25449;SDS011;13371;52.080;5.624;2024-01-07T07:22:11;15.52;;;8.25;;
25449;SDS011;13371;52.080;5.624;2024-01-07T07:24:39;14.30;;;7.30;;
25449;SDS011;13371;52.080;5.624;2024-01-07T07:27:05;15.48;;;8.20;;
25449;SDS011;13371;52.080;5.624;2024-01-07T07:29:31;13.35;;;7.78;;
25449;SDS011;13371;52.080;5.624;2024-01-07T07:31:56;16.88;;;8.90;;
25449;SDS011;13371;52.080;5.624;2024-01-07T07:34:22;16.73;;;8.20;;
25449;SDS011;13371;52.080;5.624;2024-01-07T07:36:47;16.73;;;8.23;;
25449;SDS011;13371;52.080;5.624;2024-01-07T07:39:13;15.05;;;8.93;;
25449;SDS011;13371;52.080;5.624;2024-01-07T07:41:39;16.33;;;8.05;;
25449;SDS011;13371;52.080;5.624;2024-01-07T07:44:05;14.00;;;8.18;;
25449;SDS011;13371;52.080;5.624;2024-01-07T07:46:31;14.68;;;8.55;;
25449;SDS011;13371;52.080;5.624;2024-01-07T07:48:57;11.43;;;7.05;;
25449;SDS011;13371;52.080;5.624;2024-01-07T07:51:22;14.63;;;7.57;;
25449;SDS011;13371;52.080;5.624;2024-01-07T07:53:48;12.05;;;6.68;;
25449;SDS011;13371;52.080;5.624;2024-01-07T07:56:14;12.40;;;6.53;;
25449;SDS011;13371;52.080;5.624;2024-01-07T07:58:39;12.05;;;6.72;;
25449;SDS011;13371;52.080;5.624;2024-01-07T08:01:05;10.93;;;6.18;;
25449;SDS011;13371;52.080;5.624;2024-01-07T08:03:31;10.23;;;5.28;;
25449;SDS011;13371;52.080;5.624;2024-01-07T08:05:57;11.48;;;6.38;;
25449;SDS011;13371;52.080;5.624;2024-01-07T08:08:23;8.80;;;5.70;;
25449;SDS011;13371;52.080;5.624;2024-01-07T08:10:48;7.72;;;4.93;;
25449;SDS011;13371;52.080;5.624;2024-01-07T08:13:14;11.65;;;6.45;;
25449;SDS011;13371;52.080;5.624;2024-01-07T08:15:39;11.45;;;6.20;;
25449;SDS011;13371;52.080;5.624;2024-01-07T08:18:05;9.15;;;6.07;;
25449;SDS011;13371;52.080;5.624;2024-01-07T08:20:30;10.70;;;6.00;;
25449;SDS011;13371;52.080;5.624;2024-01-07T08:22:56;10.43;;;6.20;;
25449;SDS011;13371;52.080;5.624;2024-01-07T08:25:21;9.73;;;5.28;;
25449;SDS011;13371;52.080;5.624;2024-01-07T08:27:48;9.25;;;5.13;;
25449;SDS011;13371;52.080;5.624;2024-01-07T08:30:14;11.35;;;5.72;;
25449;SDS011;13371;52.080;5.624;2024-01-07T08:32:40;8.07;;;5.32;;
25449;SDS011;13371;52.080;5.624;2024-01-07T08:35:06;16.48;;;5.82;;
25449;SDS011;13371;52.080;5.624;2024-01-07T08:37:32;12.15;;;5.65;;
25449;SDS011;13371;52.080;5.624;2024-01-07T08:39:58;10.73;;;5.85;;
25449;SDS011;13371;52.080;5.624;2024-01-07T08:42:24;8.15;;;5.13;;
25449;SDS011;13371;52.080;5.624;2024-01-07T08:44:50;7.97;;;4.35;;
25449;SDS011;13371;52.080;5.624;2024-01-07T08:47:15;9.93;;;4.65;;
25449;SDS011;13371;52.080;5.624;2024-01-07T08:49:41;7.80;;;5.00;;
25449;SDS011;13371;52.080;5.624;2024-01-07T08:52:06;8.93;;;4.90;;
25449;SDS011;13371;52.080;5.624;2024-01-07T08:54:34;11.52;;;5.80;;
25449;SDS011;13371;52.080;5.624;2024-01-07T08:57:00;12.25;;;5.65;;
25449;SDS011;13371;52.080;5.624;2024-01-07T08:59:25;11.98;;;5.03;;
25449;SDS011;13371;52.080;5.624;2024-01-07T09:01:51;10.20;;;5.60;;
25449;SDS011;13371;52.080;5.624;2024-01-07T09:04:16;8.48;;;5.20;;
25449;SDS011;13371;52.080;5.624;2024-01-07T09:06:43;8.82;;;5.18;;
25449;SDS011;13371;52.080;5.624;2024-01-07T09:09:09;8.90;;;4.55;;
25449;SDS011;13371;52.080;5.624;2024-01-07T09:11:35;8.90;;;4.78;;
25449;SDS011;13371;52.080;5.624;2024-01-07T09:14:01;8.10;;;4.85;;
25449;SDS011;13371;52.080;5.624;2024-01-07T09:16:28;10.65;;;5.57;;
25449;SDS011;13371;52.080;5.624;2024-01-07T09:18:54;9.70;;;5.00;;
25449;SDS011;13371;52.080;5.624;2024-01-07T09:21:20;11.65;;;5.82;;
25449;SDS011;13371;52.080;5.624;2024-01-07T09:23:45;8.80;;;5.05;;
25449;SDS011;13371;52.080;5.624;2024-01-07T09:26:11;12.15;;;5.50;;
25449;SDS011;13371;52.080;5.624;2024-01-07T09:28:36;9.05;;;4.93;;
25449;SDS011;13371;52.080;5.624;2024-01-07T09:31:02;8.55;;;5.18;;
25449;SDS011;13371;52.080;5.624;2024-01-07T09:33:28;7.75;;;4.15;;
25449;SDS011;13371;52.080;5.624;2024-01-07T09:35:54;7.63;;;4.53;;
25449;SDS011;13371;52.080;5.624;2024-01-07T09:38:20;10.65;;;5.57;;
25449;SDS011;13371;52.080;5.624;2024-01-07T09:40:46;8.52;;;5.15;;
25449;SDS011;13371;52.080;5.624;2024-01-07T09:43:11;11.02;;;5.45;;
25449;SDS011;13371;52.080;5.624;2024-01-07T09:45:38;6.68;;;3.80;;
25449;SDS011;13371;52.080;5.624;2024-01-07T09:48:06;13.52;;;5.97;;
25449;SDS011;13371;52.080;5.624;2024-01-07T09:50:31;8.95;;;4.75;;
25449;SDS011;13371;52.080;5.624;2024-01-07T09:52:57;11.05;;;4.97;;
25449;SDS011;13371;52.080;5.624;2024-01-07T09:55:31;8.30;;;4.45;;
25449;SDS011;13371;52.080;5.624;2024-01-07T09:58:01;8.73;;;4.28;;
25449;SDS011;13371;52.080;5.624;2024-01-07T10:00:27;9.82;;;4.80;;
25449;SDS011;13371;52.080;5.624;2024-01-07T10:02:54;9.90;;;4.70;;
25449;SDS011;13371;52.080;5.624;2024-01-07T10:05:19;9.05;;;4.15;;
25449;SDS011;13371;52.080;5.624;2024-01-07T10:07:45;9.07;;;4.38;;
25449;SDS011;13371;52.080;5.624;2024-01-07T10:10:14;7.70;;;3.90;;
25449;SDS011;13371;52.080;5.624;2024-01-07T10:12:40;6.95;;;3.65;;
25449;SDS011;13371;52.080;5.624;2024-01-07T10:15:06;8.38;;;3.63;;
25449;SDS011;13371;52.080;5.624;2024-01-07T10:17:32;9.02;;;4.28;;
25449;SDS011;13371;52.080;5.624;2024-01-07T10:19:58;9.38;;;3.92;;
25449;SDS011;13371;52.080;5.624;2024-01-07T10:22:24;6.93;;;3.83;;
25449;SDS011;13371;52.080;5.624;2024-01-07T10:24:50;5.32;;;3.05;;
25449;SDS011;13371;52.080;5.624;2024-01-07T10:27:16;6.20;;;3.00;;
25449;SDS011;13371;52.080;5.624;2024-01-07T10:29:42;6.32;;;3.35;;
25449;SDS011;13371;52.080;5.624;2024-01-07T10:32:08;8.23;;;3.20;;
25449;SDS011;13371;52.080;5.624;2024-01-07T10:34:34;5.18;;;3.17;;
25449;SDS011;13371;52.080;5.624;2024-01-07T10:37:01;7.90;;;3.60;;
25449;SDS011;13371;52.080;5.624;2024-01-07T10:39:28;5.30;;;3.20;;
25449;SDS011;13371;52.080;5.624;2024-01-07T10:41:55;8.07;;;3.78;;
25449;SDS011;13371;52.080;5.624;2024-01-07T10:44:29;6.63;;;3.10;;
25449;SDS011;13371;52.080;5.624;2024-01-07T10:46:56;6.38;;;3.70;;
25449;SDS011;13371;52.080;5.624;2024-01-07T10:49:28;6.97;;;3.15;;
25449;SDS011;13371;52.080;5.624;2024-01-07T10:51:58;4.57;;;2.70;;
25449;SDS011;13371;52.080;5.624;2024-01-07T10:54:34;4.80;;;2.78;;
25449;SDS011;13371;52.080;5.624;2024-01-07T10:57:09;7.47;;;3.28;;
25449;SDS011;13371;52.080;5.624;2024-01-07T10:59:46;5.30;;;3.00;;
25449;SDS011;13371;52.080;5.624;2024-01-07T11:02:14;6.07;;;2.83;;
25449;SDS011;13371;52.080;5.624;2024-01-07T11:07:35;5.00;;;3.03;;
25449;SDS011;13371;52.080;5.624;2024-01-07T11:10:20;5.75;;;3.10;;
25449;SDS011;13371;52.080;5.624;2024-01-07T11:12:53;6.78;;;3.00;;
25449;SDS011;13371;52.080;5.624;2024-01-07T11:18:19;4.72;;;2.75;;
25449;SDS011;13371;52.080;5.624;2024-01-07T11:20:48;6.50;;;2.38;;
25449;SDS011;13371;52.080;5.624;2024-01-07T11:23:27;5.93;;;3.25;;
25449;SDS011;13371;52.080;5.624;2024-01-07T11:25:57;8.73;;;2.92;;
25449;SDS011;13371;52.080;5.624;2024-01-07T11:31:12;6.97;;;2.10;;
25449;SDS011;13371;52.080;5.624;2024-01-07T11:33:38;4.50;;;2.25;;
25449;SDS011;13371;52.080;5.624;2024-01-07T11:36:07;3.97;;;2.35;;
25449;SDS011;13371;52.080;5.624;2024-01-07T11:38:35;2.90;;;1.85;;
25449;SDS011;13371;52.080;5.624;2024-01-07T11:41:04;3.20;;;1.55;;
25449;SDS011;13371;52.080;5.624;2024-01-07T11:43:31;4.32;;;2.20;;
25449;SDS011;13371;52.080;5.624;2024-01-07T11:45:58;3.53;;;2.05;;
25449;SDS011;13371;52.080;5.624;2024-01-07T11:48:24;3.35;;;1.95;;
25449;SDS011;13371;52.080;5.624;2024-01-07T11:50:50;3.65;;;1.50;;
25449;SDS011;13371;52.080;5.624;2024-01-07T11:53:15;3.25;;;1.65;;
25449;SDS011;13371;52.080;5.624;2024-01-07T11:55:41;14.48;;;4.97;;
25449;SDS011;13371;52.080;5.624;2024-01-07T11:58:07;3.72;;;1.65;;
25449;SDS011;13371;52.080;5.624;2024-01-07T12:00:33;3.35;;;1.67;;
25449;SDS011;13371;52.080;5.624;2024-01-07T12:02:59;4.25;;;1.48;;
25449;SDS011;13371;52.080;5.624;2024-01-07T12:05:28;4.45;;;1.90;;
25449;SDS011;13371;52.080;5.624;2024-01-07T12:07:55;2.97;;;1.70;;
25449;SDS011;13371;52.080;5.624;2024-01-07T12:10:23;4.15;;;2.03;;
25449;SDS011;13371;52.080;5.624;2024-01-07T12:12:49;7.43;;;2.15;;
25449;SDS011;13371;52.080;5.624;2024-01-07T12:15:18;4.55;;;1.92;;
25449;SDS011;13371;52.080;5.624;2024-01-07T12:17:54;2.20;;;1.30;;
25449;SDS011;13371;52.080;5.624;2024-01-07T12:20:24;2.83;;;1.35;;
25449;SDS011;13371;52.080;5.624;2024-01-07T12:22:50;2.35;;;1.30;;
25449;SDS011;13371;52.080;5.624;2024-01-07T12:25:20;2.17;;;1.38;;
25449;SDS011;13371;52.080;5.624;2024-01-07T12:27:50;3.97;;;1.08;;
25449;SDS011;13371;52.080;5.624;2024-01-07T12:30:18;4.80;;;1.80;;
25449;SDS011;13371;52.080;5.624;2024-01-07T12:32:44;2.10;;;1.45;;
25449;SDS011;13371;52.080;5.624;2024-01-07T12:35:10;2.30;;;1.17;;
25449;SDS011;13371;52.080;5.624;2024-01-07T12:37:36;6.10;;;2.08;;
25449;SDS011;13371;52.080;5.624;2024-01-07T12:40:02;3.40;;;1.50;;
25449;SDS011;13371;52.080;5.624;2024-01-07T12:42:29;3.53;;;1.73;;
25449;SDS011;13371;52.080;5.624;2024-01-07T12:44:55;2.35;;;1.20;;
25449;SDS011;13371;52.080;5.624;2024-01-07T12:47:22;2.90;;;1.45;;
25449;SDS011;13371;52.080;5.624;2024-01-07T12:49:48;5.07;;;1.35;;
25449;SDS011;13371;52.080;5.624;2024-01-07T12:52:14;1.77;;;0.93;;
25449;SDS011;13371;52.080;5.624;2024-01-07T12:54:42;3.95;;;1.90;;
25449;SDS011;13371;52.080;5.624;2024-01-07T12:57:08;3.58;;;1.20;;
25449;SDS011;13371;52.080;5.624;2024-01-07T12:59:34;3.03;;;1.52;;
25449;SDS011;13371;52.080;5.624;2024-01-07T13:02:00;5.18;;;1.98;;
25449;SDS011;13371;52.080;5.624;2024-01-07T13:04:34;5.57;;;2.03;;
25449;SDS011;13371;52.080;5.624;2024-01-07T13:07:06;5.85;;;1.90;;
25449;SDS011;13371;52.080;5.624;2024-01-07T13:09:31;2.03;;;1.27;;
25449;SDS011;13371;52.080;5.624;2024-01-07T13:11:57;2.95;;;1.20;;
25449;SDS011;13371;52.080;5.624;2024-01-07T13:14:23;2.17;;;1.30;;
25449;SDS011;13371;52.080;5.624;2024-01-07T13:16:48;1.77;;;0.90;;
25449;SDS011;13371;52.080;5.624;2024-01-07T13:19:14;2.70;;;1.50;;
25449;SDS011;13371;52.080;5.624;2024-01-07T13:21:42;2.30;;;1.00;;
25449;SDS011;13371;52.080;5.624;2024-01-07T13:24:07;4.28;;;1.20;;
25449;SDS011;13371;52.080;5.624;2024-01-07T13:26:36;2.17;;;1.25;;
25449;SDS011;13371;52.080;5.624;2024-01-07T13:29:07;3.33;;;1.35;;
25449;SDS011;13371;52.080;5.624;2024-01-07T13:31:32;2.83;;;1.45;;
25449;SDS011;13371;52.080;5.624;2024-01-07T13:33:58;0.65;;;0.65;;
25449;SDS011;13371;52.080;5.624;2024-01-07T13:36:23;3.15;;;1.35;;
25449;SDS011;13371;52.080;5.624;2024-01-07T13:38:49;3.15;;;1.35;;
25449;SDS011;13371;52.080;5.624;2024-01-07T13:41:15;1.33;;;1.00;;
25449;SDS011;13371;52.080;5.624;2024-01-07T13:43:44;2.28;;;1.30;;
25449;SDS011;13371;52.080;5.624;2024-01-07T13:46:10;2.17;;;1.10;;
25449;SDS011;13371;52.080;5.624;2024-01-07T13:48:35;2.70;;;1.15;;
25449;SDS011;13371;52.080;5.624;2024-01-07T13:51:04;2.13;;;0.98;;
25449;SDS011;13371;52.080;5.624;2024-01-07T13:53:30;2.00;;;1.15;;
25449;SDS011;13371;52.080;5.624;2024-01-07T13:56:03;2.22;;;1.25;;
25449;SDS011;13371;52.080;5.624;2024-01-07T13:58:29;2.90;;;1.30;;
25449;SDS011;13371;52.080;5.624;2024-01-07T14:00:57;5.13;;;1.50;;
25449;SDS011;13371;52.080;5.624;2024-01-07T14:03:26;2.03;;;1.25;;
25449;SDS011;13371;52.080;5.624;2024-01-07T14:05:57;7.65;;;3.08;;
25449;SDS011;13371;52.080;5.624;2024-01-07T14:08:23;11.25;;;3.33;;
25449;SDS011;13371;52.080;5.624;2024-01-07T14:10:58;3.70;;;1.77;;
25449;SDS011;13371;52.080;5.624;2024-01-07T14:13:24;1.60;;;1.27;;
25449;SDS011;13371;52.080;5.624;2024-01-07T14:15:55;2.42;;;1.20;;
25449;SDS011;13371;52.080;5.624;2024-01-07T14:18:21;8.95;;;2.58;;
25449;SDS011;13371;52.080;5.624;2024-01-07T14:20:50;3.95;;;1.23;;
25449;SDS011;13371;52.080;5.624;2024-01-07T14:23:22;2.35;;;1.17;;
25449;SDS011;13371;52.080;5.624;2024-01-07T14:25:50;5.32;;;1.65;;
25449;SDS011;13371;52.080;5.624;2024-01-07T14:28:15;6.18;;;1.30;;
25449;SDS011;13371;52.080;5.624;2024-01-07T14:30:44;4.10;;;1.40;;
25449;SDS011;13371;52.080;5.624;2024-01-07T14:33:13;3.33;;;1.70;;
25449;SDS011;13371;52.080;5.624;2024-01-07T14:35:39;3.63;;;1.80;;
25449;SDS011;13371;52.080;5.624;2024-01-07T14:38:05;1.98;;;1.17;;
25449;SDS011;13371;52.080;5.624;2024-01-07T14:40:30;2.88;;;1.48;;